Time,TemperatureF,DewpointF,PressureIn,WindDirection,WindDirectionDegrees,WindSpeedMPH,WindSpeedGustMPH,Humidity,HourlyPrecipIn,Conditions,Clouds,dailyrainin,SoftwareType,DateUTC
2013-06-09 00:02:00,59.0,39.0,29.64,WNW,300,7.0,10.0,47,0.00,,,0.04,,2013-06-09 06:02:00,
2013-06-09 00:11:00,59.0,39.0,29.64,WNW,300,7.0,10.0,47,0.00,,,0.04,,2013-06-09 06:11:00,
2013-06-09 00:22:00,59.0,40.0,29.65,WNW,300,7.0,11.0,49,0.00,,,0.04,,2013-06-09 06:22:00,
2013-06-09 00:32:00,59.0,40.0,29.65,WNW,299,5.0,10.0,49,0.00,,,0.00,,2013-06-09 06:32:00,
2013-06-09 00:42:00,59.0,40.0,29.65,WNW,299,5.0,10.0,49,0.00,,,0.00,,2013-06-09 06:42:00,
2013-06-09 00:52:00,58.0,39.0,29.65,NW,325,7.0,9.0,50,0.00,,,0.00,,2013-06-09 06:52:00,
2013-06-09 01:02:00,58.0,40.0,29.65,NW,321,6.0,8.0,51,0.00,,,0.00,,2013-06-09 07:02:00,
2013-06-09 01:12:00,58.0,40.0,29.65,NW,321,6.0,8.0,51,0.00,,,0.00,,2013-06-09 07:12:00,
2013-06-09 01:22:00,57.0,40.0,29.65,NW,311,5.0,6.0,53,0.00,,,0.00,,2013-06-09 07:22:00,
2013-06-09 01:32:00,57.0,40.0,29.66,WNW,300,4.0,8.0,53,0.00,,,0.00,,2013-06-09 07:32:00,
2013-06-09 01:42:00,57.0,40.0,29.66,WNW,300,4.0,8.0,53,0.00,,,0.00,,2013-06-09 07:42:00,
2013-06-09 01:52:00,56.0,40.0,29.66,WNW,286,3.0,7.0,54,0.00,,,0.00,,2013-06-09 07:52:00,
2013-06-09 02:02:00,56.0,40.0,29.66,WNW,296,6.0,9.0,55,0.00,,,0.00,,2013-06-09 08:02:00,
2013-06-09 02:11:00,56.0,40.0,29.66,WNW,296,6.0,9.0,55,0.00,,,0.00,,2013-06-09 08:11:00,
2013-06-09 02:22:00,56.0,40.0,29.66,NW,308,4.0,10.0,54,0.00,,,0.00,,2013-06-09 08:22:00,
2013-06-09 02:32:00,56.0,40.0,29.66,NW,308,6.0,10.0,54,0.00,,,0.00,,2013-06-09 08:32:00,
2013-06-09 02:42:00,56.0,40.0,29.66,NW,308,6.0,10.0,54,0.00,,,0.00,,2013-06-09 08:42:00,
2013-06-09 02:53:00,57.0,40.0,29.66,WNW,298,7.0,10.0,52,0.00,,,0.00,,2013-06-09 08:53:00,
2013-06-09 03:01:00,57.0,40.0,29.66,WNW,296,6.0,9.0,53,0.00,,,0.00,,2013-06-09 09:01:00,
2013-06-09 03:11:00,57.0,40.0,29.66,WNW,296,6.0,9.0,53,0.00,,,0.00,,2013-06-09 09:11:00,
2013-06-09 03:22:00,56.0,39.0,29.66,WNW,296,6.0,11.0,53,0.00,,,0.00,,2013-06-09 09:22:00,
2013-06-09 03:32:00,56.0,39.0,29.66,WNW,296,8.0,11.0,53,0.00,,,0.00,,2013-06-09 09:32:00,
2013-06-09 03:43:00,56.0,39.0,29.66,WNW,296,8.0,11.0,53,0.00,,,0.00,,2013-06-09 09:43:00,
2013-06-09 03:52:00,56.0,40.0,29.66,WNW,284,7.0,12.0,54,0.00,,,0.00,,2013-06-09 09:52:00,
2013-06-09 04:03:00,56.0,39.0,29.66,WNW,299,7.0,12.0,53,0.00,,,0.00,,2013-06-09 10:03:00,
2013-06-09 04:12:00,56.0,39.0,29.66,WNW,299,7.0,12.0,53,0.00,,,0.00,,2013-06-09 10:12:00,
2013-06-09 04:22:00,56.0,39.0,29.66,WNW,283,3.0,7.0,52,0.00,,,0.00,,2013-06-09 10:22:00,
2013-06-09 04:32:00,56.0,39.0,29.66,WNW,294,5.0,9.0,53,0.00,,,0.00,,2013-06-09 10:32:00,
2013-06-09 04:42:00,56.0,39.0,29.66,WNW,294,5.0,9.0,53,0.00,,,0.00,,2013-06-09 10:42:00,
2013-06-09 04:52:00,56.0,39.0,29.66,WNW,300,4.0,10.0,52,0.00,,,0.00,,2013-06-09 10:52:00,
2013-06-09 05:02:00,55.0,39.0,29.66,WNW,291,4.0,6.0,54,0.00,,,0.00,,2013-06-09 11:02:00,
2013-06-09 05:12:00,55.0,39.0,29.66,WNW,291,4.0,6.0,54,0.00,,,0.00,,2013-06-09 11:12:00,
2013-06-09 05:22:00,54.0,38.0,29.67,West,272,4.0,8.0,55,0.00,,,0.00,,2013-06-09 11:22:00,
2013-06-09 05:32:00,55.0,38.0,29.67,WNW,299,5.0,7.0,52,0.00,,,0.00,,2013-06-09 11:32:00,
2013-06-09 05:42:00,55.0,38.0,29.67,WNW,299,5.0,7.0,52,0.00,,,0.00,,2013-06-09 11:42:00,
2013-06-09 05:52:00,56.0,38.0,29.67,NW,323,5.0,10.0,51,0.00,,,0.00,,2013-06-09 11:52:00,
2013-06-09 06:02:00,55.0,38.0,29.67,WNW,293,4.0,8.0,52,0.00,,,0.00,,2013-06-09 12:02:00,
2013-06-09 06:12:00,55.0,38.0,29.67,WNW,293,4.0,8.0,52,0.00,,,0.00,,2013-06-09 12:12:00,
2013-06-09 06:22:00,55.0,39.0,29.67,West,275,2.0,6.0,54,0.00,,,0.00,,2013-06-09 12:22:00,
2013-06-09 06:32:00,57.0,39.0,29.67,WNW,300,7.0,11.0,50,0.00,,,0.00,,2013-06-09 12:32:00,
2013-06-09 06:42:00,57.0,39.0,29.67,WNW,300,7.0,11.0,50,0.00,,,0.00,,2013-06-09 12:42:00,
2013-06-09 06:52:00,58.0,39.0,29.67,WNW,297,6.0,12.0,49,0.00,,,0.00,,2013-06-09 12:52:00,
2013-06-09 07:02:00,60.0,41.0,29.67,NNE,24,0.0,4.0,50,0.00,,,0.00,,2013-06-09 13:02:00,
2013-06-09 07:22:00,61.0,43.0,29.67,NNE,24,2.0,4.0,51,0.00,,,0.00,,2013-06-09 13:22:00,
2013-06-09 07:32:00,61.0,43.0,29.67,NNE,24,3.0,4.0,52,0.00,,,0.00,,2013-06-09 13:32:00,
2013-06-09 07:42:00,61.0,43.0,29.67,NNE,24,3.0,4.0,52,0.00,,,0.00,,2013-06-09 13:42:00,
2013-06-09 07:52:00,61.0,43.0,29.67,East,84,1.0,3.0,51,0.00,,,0.00,,2013-06-09 13:52:00,
2013-06-09 08:02:00,63.0,43.0,29.67,East,84,1.0,2.0,48,0.00,,,0.00,,2013-06-09 14:02:00,
2013-06-09 08:12:00,63.0,43.0,29.67,East,84,1.0,2.0,48,0.00,,,0.00,,2013-06-09 14:12:00,
2013-06-09 08:22:00,64.0,43.0,29.66,East,84,0.0,2.0,46,0.00,,,0.00,,2013-06-09 14:22:00,
2013-06-09 08:32:00,65.0,42.0,29.66,NNE,26,0.0,3.0,43,0.00,,,0.00,,2013-06-09 14:32:00,
2013-06-09 08:42:00,65.0,42.0,29.66,NNE,26,0.0,3.0,43,0.00,,,0.00,,2013-06-09 14:42:00,
2013-06-09 08:52:00,67.0,41.0,29.66,NNE,32,2.0,4.0,39,0.00,,,0.00,,2013-06-09 14:52:00,
2013-06-09 09:02:00,67.0,41.0,29.66,ESE,112,3.0,7.0,38,0.00,,,0.00,,2013-06-09 15:02:00,
2013-06-09 09:12:00,67.0,41.0,29.66,ESE,112,3.0,7.0,38,0.00,,,0.00,,2013-06-09 15:12:00,
2013-06-09 09:22:00,68.0,41.0,29.65,East,98,5.0,8.0,37,0.00,,,0.00,,2013-06-09 15:22:00,
2013-06-09 09:32:00,68.0,41.0,29.65,East,82,2.0,9.0,37,0.00,,,0.00,,2013-06-09 15:32:00,
2013-06-09 09:43:00,68.0,41.0,29.65,East,82,2.0,9.0,37,0.00,,,0.00,,2013-06-09 15:43:00,
2013-06-09 09:53:00,68.0,41.0,29.65,East,90,4.0,9.0,37,0.00,,,0.00,,2013-06-09 15:53:00,
2013-06-09 10:03:00,69.0,40.0,29.64,ENE,70,2.0,8.0,35,0.00,,,0.00,,2013-06-09 16:03:00,
2013-06-09 10:13:00,69.0,40.0,29.64,ENE,70,2.0,8.0,35,0.00,,,0.00,,2013-06-09 16:13:00,
2013-06-09 10:23:00,69.0,39.0,29.64,East,100,4.0,9.0,34,0.00,,,0.00,,2013-06-09 16:23:00,
2013-06-09 10:33:00,69.0,39.0,29.63,ENE,70,2.0,9.0,34,0.00,,,0.00,,2013-06-09 16:33:00,
2013-06-09 10:42:00,69.0,39.0,29.63,ENE,70,2.0,9.0,34,0.00,,,0.00,,2013-06-09 16:42:00,
2013-06-09 10:53:00,70.0,40.0,29.62,NE,36,7.0,10.0,34,0.00,,,0.00,,2013-06-09 16:53:00,
2013-06-09 11:02:00,70.0,39.0,29.61,East,84,3.0,10.0,32,0.00,,,0.00,,2013-06-09 17:02:00,
2013-06-09 11:12:00,70.0,39.0,29.61,East,84,3.0,10.0,32,0.00,,,0.00,,2013-06-09 17:12:00,
2013-06-09 11:22:00,71.0,40.0,29.61,East,80,5.0,10.0,32,0.00,,,0.00,,2013-06-09 17:22:00,
2013-06-09 11:32:00,72.0,38.0,29.60,East,84,4.0,9.0,29,0.00,,,0.00,,2013-06-09 17:32:00,
2013-06-09 11:42:00,72.0,38.0,29.60,East,84,4.0,9.0,29,0.00,,,0.00,,2013-06-09 17:42:00,
2013-06-09 11:52:00,73.0,40.0,29.59,East,100,3.0,8.0,30,0.00,,,0.00,,2013-06-09 17:52:00,
2013-06-09 12:02:00,73.0,41.0,29.58,East,99,6.0,10.0,31,0.00,,,0.00,,2013-06-09 18:02:00,
2013-06-09 12:12:00,73.0,41.0,29.58,East,99,6.0,10.0,31,0.00,,,0.00,,2013-06-09 18:12:00,
2013-06-09 12:21:00,73.0,39.0,29.57,NE,40,4.0,8.0,29,0.00,,,0.00,,2013-06-09 18:21:00,
2013-06-09 12:32:00,74.0,39.0,29.56,NE,54,1.0,5.0,28,0.00,,,0.00,,2013-06-09 18:32:00,
2013-06-09 12:42:00,74.0,39.0,29.56,NE,54,1.0,5.0,28,0.00,,,0.00,,2013-06-09 18:42:00,
2013-06-09 12:52:00,75.0,39.0,29.55,NE,53,2.0,9.0,27,0.00,,,0.00,,2013-06-09 18:52:00,
2013-06-09 13:02:00,75.0,39.0,29.55,North,355,0.0,5.0,27,0.00,,,0.00,,2013-06-09 19:02:00,
2013-06-09 13:12:00,75.0,39.0,29.55,North,355,0.0,5.0,27,0.00,,,0.00,,2013-06-09 19:12:00,
2013-06-09 13:22:00,77.0,41.0,29.53,ESE,110,3.0,7.0,28,0.00,,,0.00,,2013-06-09 19:22:00,
2013-06-09 13:32:00,78.0,40.0,29.52,SW,216,4.0,8.0,26,0.00,,,0.00,,2013-06-09 19:32:00,
2013-06-09 13:42:00,78.0,40.0,29.52,SW,216,4.0,8.0,26,0.00,,,0.00,,2013-06-09 19:42:00,
2013-06-09 13:52:00,79.0,40.0,29.52,NE,36,2.0,11.0,25,0.00,,,0.00,,2013-06-09 19:52:00,
2013-06-09 14:02:00,80.0,40.0,29.50,ESE,120,3.0,11.0,24,0.00,,,0.00,,2013-06-09 20:02:00,
2013-06-09 14:12:00,80.0,40.0,29.50,ESE,120,3.0,11.0,24,0.00,,,0.00,,2013-06-09 20:12:00,
2013-06-09 14:22:00,81.0,41.0,29.50,SE,140,3.0,9.0,24,0.00,,,0.00,,2013-06-09 20:22:00,
2013-06-09 14:32:00,81.0,41.0,29.49,East,100,2.0,7.0,24,0.00,,,0.00,,2013-06-09 20:32:00,
2013-06-09 14:42:00,81.0,41.0,29.49,East,100,2.0,7.0,24,0.00,,,0.00,,2013-06-09 20:42:00,
2013-06-09 14:52:00,82.0,42.0,29.48,SSE,157,5.0,8.0,24,0.00,,,0.00,,2013-06-09 20:52:00,
2013-06-09 15:02:00,83.0,44.0,29.47,SSW,207,3.0,12.0,25,0.00,,,0.00,,2013-06-09 21:02:00,
2013-06-09 15:12:00,83.0,45.0,29.47,WNW,290,4.0,8.0,26,0.00,,,0.00,,2013-06-09 21:12:00,
2013-06-09 15:22:00,83.0,45.0,29.47,WNW,290,4.0,8.0,26,0.00,,,0.00,,2013-06-09 21:22:00,
2013-06-09 15:33:00,83.0,40.0,29.45,NW,315,3.0,7.0,22,0.00,,,0.00,,2013-06-09 21:33:00,
2013-06-09 15:42:00,83.0,40.0,29.45,NW,315,3.0,7.0,22,0.00,,,0.00,,2013-06-09 21:42:00,
2013-06-09 15:53:00,85.0,42.0,29.44,ESE,121,1.0,8.0,22,0.00,,,0.00,,2013-06-09 21:53:00,
2013-06-09 16:02:00,85.0,41.0,29.43,ENE,76,7.0,12.0,21,0.00,,,0.00,,2013-06-09 22:02:00,
2013-06-09 16:12:00,86.0,40.0,29.41,NE,42,13.0,20.0,20,0.00,,,0.00,,2013-06-09 22:12:00,
2013-06-09 16:22:00,86.0,40.0,29.41,NE,42,13.0,20.0,20,0.00,,,0.00,,2013-06-09 22:22:00,
2013-06-09 16:32:00,86.0,40.0,29.40,North,10,6.0,11.0,20,0.00,,,0.00,,2013-06-09 22:32:00,
2013-06-09 16:42:00,86.0,40.0,29.40,North,10,6.0,11.0,20,0.00,,,0.00,,2013-06-09 22:42:00,
2013-06-09 16:52:00,86.0,36.0,29.39,NE,47,15.0,28.0,17,0.00,,,0.00,,2013-06-09 22:52:00,
2013-06-09 17:02:00,87.0,38.0,29.40,SW,232,7.0,13.0,18,0.00,,,0.00,,2013-06-09 23:02:00,
2013-06-09 17:12:00,87.0,38.0,29.39,SSW,207,5.0,23.0,18,0.00,,,0.00,,2013-06-09 23:12:00,
2013-06-09 17:22:00,87.0,38.0,29.39,SSW,207,5.0,23.0,18,0.00,,,0.00,,2013-06-09 23:22:00,
2013-06-09 17:32:00,88.0,42.0,29.39,SW,219,5.0,12.0,20,0.00,,,0.00,,2013-06-09 23:32:00,
2013-06-09 17:42:00,88.0,42.0,29.39,SW,219,5.0,12.0,20,0.00,,,0.00,,2013-06-09 23:42:00,
2013-06-09 17:52:00,87.0,40.0,29.38,SSE,159,7.0,20.0,19,0.00,,,0.00,,2013-06-09 23:52:00,
2013-06-09 18:01:00,87.0,40.0,29.38,SW,215,13.0,22.0,19,0.00,,,0.00,,2013-06-10 00:01:00,
2013-06-09 18:12:00,87.0,40.0,29.38,SW,215,13.0,22.0,19,0.00,,,0.00,,2013-06-10 00:12:00,
2013-06-09 18:22:00,86.0,39.0,29.38,SSW,213,13.0,31.0,19,0.00,,,0.00,,2013-06-10 00:22:00,
2013-06-09 18:32:00,86.0,39.0,29.38,WSW,249,18.0,33.0,19,0.00,,,0.00,,2013-06-10 00:32:00,
2013-06-09 18:42:00,86.0,39.0,29.38,WSW,249,18.0,33.0,19,0.00,,,0.00,,2013-06-10 00:42:00,
2013-06-09 18:52:00,85.0,37.0,29.37,West,279,16.0,31.0,18,0.00,,,0.00,,2013-06-10 00:52:00,
2013-06-09 19:02:00,84.0,36.0,29.37,SW,236,17.0,32.0,18,0.00,,,0.00,,2013-06-10 01:02:00,
2013-06-09 19:11:00,84.0,36.0,29.37,SW,236,17.0,32.0,18,0.00,,,0.00,,2013-06-10 01:11:00,
2013-06-09 19:22:00,83.0,35.0,29.37,South,182,13.0,27.0,18,0.00,,,0.00,,2013-06-10 01:22:00,
2013-06-09 19:32:00,83.0,38.0,29.37,WSW,258,10.0,25.0,20,0.00,,,0.00,,2013-06-10 01:32:00,
2013-06-09 19:42:00,83.0,38.0,29.37,WSW,258,10.0,25.0,20,0.00,,,0.00,,2013-06-10 01:42:00,
2013-06-09 19:52:00,82.0,37.0,29.37,NW,315,9.0,24.0,20,0.00,,,0.00,,2013-06-10 01:52:00,
2013-06-09 20:02:00,81.0,36.0,29.36,West,259,16.0,32.0,20,0.00,,,0.00,,2013-06-10 02:02:00,
2013-06-09 20:12:00,81.0,36.0,29.36,West,259,16.0,32.0,20,0.00,,,0.00,,2013-06-10 02:12:00,
2013-06-09 20:22:00,81.0,37.0,29.36,South,184,17.0,32.0,21,0.00,,,0.00,,2013-06-10 02:22:00,
2013-06-09 20:32:00,81.0,37.0,29.36,WSW,258,8.0,30.0,21,0.00,,,0.00,,2013-06-10 02:32:00,
2013-06-09 20:42:00,81.0,37.0,29.36,WSW,258,8.0,30.0,21,0.00,,,0.00,,2013-06-10 02:42:00,
2013-06-09 20:52:00,81.0,39.0,29.36,SW,223,8.0,19.0,22,0.00,,,0.00,,2013-06-10 02:52:00,
2013-06-09 21:02:00,80.0,40.0,29.36,SE,135,2.0,10.0,24,0.00,,,0.00,,2013-06-10 03:02:00,
2013-06-09 21:12:00,80.0,40.0,29.36,SE,135,2.0,10.0,24,0.00,,,0.00,,2013-06-10 03:12:00,
2013-06-09 21:22:00,77.0,42.0,29.36,South,175,7.0,11.0,29,0.00,,,0.00,,2013-06-10 03:22:00,
2013-06-09 21:32:00,77.0,39.0,29.36,NNW,348,5.0,9.0,26,0.00,,,0.00,,2013-06-10 03:32:00,
2013-06-09 21:43:00,77.0,39.0,29.36,NNW,348,5.0,9.0,26,0.00,,,0.00,,2013-06-10 03:43:00,
2013-06-09 21:53:00,77.0,37.0,29.36,SSW,194,6.0,13.0,24,0.00,,,0.00,,2013-06-10 03:53:00,
2013-06-09 22:03:00,80.0,37.0,29.36,WSW,238,2.0,25.0,21,0.00,,,0.00,,2013-06-10 04:03:00,
2013-06-09 22:12:00,80.0,37.0,29.36,WSW,238,2.0,25.0,21,0.00,,,0.00,,2013-06-10 04:12:00,
2013-06-09 22:23:00,80.0,37.0,29.36,WSW,238,2.0,25.0,21,0.00,,,0.00,,2013-06-10 04:23:00,
2013-06-09 22:33:00,79.0,40.0,29.38,NE,46,4.0,15.0,25,0.00,,,0.00,,2013-06-10 04:33:00,
2013-06-09 22:42:00,79.0,40.0,29.38,NE,46,4.0,15.0,25,0.00,,,0.00,,2013-06-10 04:42:00,
2013-06-09 22:52:00,78.0,40.0,29.39,East,86,5.0,16.0,26,0.00,,,0.00,,2013-06-10 04:52:00,
2013-06-09 23:02:00,76.0,41.0,29.38,NE,34,10.0,16.0,28,0.00,,,0.00,,2013-06-10 05:02:00,
2013-06-09 23:12:00,76.0,41.0,29.38,NE,34,10.0,16.0,28,0.00,,,0.00,,2013-06-10 05:12:00,
2013-06-09 23:22:00,73.0,41.0,29.39,NNE,22,6.0,19.0,32,0.00,,,0.00,,2013-06-10 05:22:00,
2013-06-09 23:32:00,73.0,42.0,29.39,WNW,293,3.0,15.0,33,0.00,,,0.00,,2013-06-10 05:32:00,
2013-06-09 23:42:00,73.0,42.0,29.39,WNW,293,3.0,15.0,33,0.00,,,0.00,,2013-06-10 05:42:00,
2013-06-09 23:52:00,71.0,43.0,29.39,SE,125,4.0,8.0,36,0.00,,,0.00,,2013-06-10 05:52:00,